Архив погоды в Кизляре

Метеограмма Кизляр
Вторник, 24 Апреля
Время местн. Темп Ветер Видим Явления Облачность нижн/средн/верх Атм. давл. Влжн Точка росы ВНГО R Сост. почвы Tg s
Напр Скр Прв ур.ст ур.м изм
09:00 +13.3° С-З 2 - 10 км - переменная облачность 766 766 +1.6 68% +7.5° 1 км - - - -
06:00 +10.2° З,С-З 2 - 10 км - облачно 764 764 +1.2 91% +8.8° 1 км - Влажная (без луж) - -
03:00 +9.6° Ю-З 4 - 10 км дождь облачно 763 763 +0.3 90% +8.1° 1 км - - - -
00:00 +9.3° Ю-З 5 - 4 км умеренный непрерывный дождь облачно 763 762 +0.2 93% +8.3° 1 км - - - -
Понедельник, 23 Апреля
Время местн. Темп Ветер Видим Явления Облачность нижн/средн/верх Атм. давл. Влжн Точка росы ВНГО R Сост. почвы Tg s
Напр Скр Прв ур.ст ур.м изм
21:00 +10.9° С-З 3 - 10 км умеренный непрерывный дождь облачно 763 762 +2.9 82% +7.9° 1 км - - - -
18:00 +14.8° С 4 - 10 км - облачно 760 759 +1.1 57% +6.3° 1 км - - - -
15:00 +20.3° З 3 - 10 км - переменная облачность 759 758 -0.9 28% +1.4° 1 км - - - -
12:00 +18.3° З 4 - 10 км - облачно с прояснениями 760 759 -0.2 35% +2.6° 1 км - - - -
09:00 +15.7° З 5 - 10 км - переменная облачность 760 759 +0.5 49% +5° 1 км - - - -
06:00 +12.6° З 2 - 10 км - облачно с прояснениями 759 759 +0.5 76% +8.5° 1 км 0.5 Влажная (без луж) +17° -
03:00 +12.1° З 2 - 10 км небо без изменений {дождь} облачно 759 758 0 82% +9.2° 1 км - - - -
00:00 +13.2° З 2 - 10 км - облачно 759 759 +0.1 73% +8.4° 1 км - - - -
Воскресенье, 22 Апреля
Время местн. Темп Ветер Видим Явления Облачность нижн/средн/верх Атм. давл. Влжн Точка росы ВНГО R Сост. почвы Tg s
Напр Скр Прв ур.ст ур.м изм
21:00 +13.6° В 1 - 10 км - переменная облачность 759 758 +2.3 66% +7.4° 1 км - - - -
18:00 +20.4° З 1 - 10 км - ясно 757 756 -0.1 30% +2.1° более 2.5 км 0 - - -
15:00 +21.5° З,С-З 4 - 10 км - переменная облачность 757 756 -1.1 25% +0.8° 1 км - - - -
12:00 +18.6° З 3 - 10 км - переменная облачность 758 757 -1.7 38% +4° 1 км - - - -
09:00 +15.2° З 4 - 10 км - ясно 759 759 -0.5 56% +6.6° более 2.5 км - - - -
06:00 +6° Ю-З 1 - 4 км дымка ясно 760 759 -0.5 97% +5.6° более 2.5 км 0 Сухая (без трещин) +4° -
03:00 +7.6° З 1 - 10 км - ясно 760 760 -0.8 93% +6.6° более 2.5 км - - - -
00:00 +8.7° З,Ю-З 1 - 10 км - переменная облачность 761 761 -0.3 84% +6.1° - - - - -
Суббота, 21 Апреля
Время местн. Темп Ветер Видим Явления Облачность нижн/средн/верх Атм. давл. Влжн Точка росы ВНГО R Сост. почвы Tg s
Напр Скр Прв ур.ст ур.м изм
21:00 +11° З 3 - 10 км - переменная облачность 761 761 +1.2 79% +7.5° 1 км - - - -
18:00 +12.9° С-З 3 - 10 км - облачно с прояснениями 760 760 +0.7 74% +8.4° 1 км - - - -
15:00 +14.8° З,С-З 6 13 10 км - преимущественно облачно 759 759 +0.1 60% +7.2° 1 км - - - -
12:00 +15.1° З 8 13 10 км - облачно с прояснениями 759 759 +0.1 58% +6.9° 1 км - - - -
09:00 +12.6° З 8 14 10 км - преимущественно облачно 759 759 +0.8 66% +6.4° 1 км - - - -
06:00 +9.5° З 5 - 10 км - преимущественно облачно 759 758 +0.5 80% +6.3° 1 км - Влажная (без луж) - -